createdAt,value
2022-09-16T00:00:47.002Z,11.85
2022-09-16T00:03:34.912Z,11.75
2022-09-16T00:06:01.956Z,10.57
2022-09-16T00:08:28.755Z,11.15
2022-09-16T00:11:00.426Z,11.40
2022-09-16T00:13:28.043Z,12.35
2022-09-16T00:15:55.125Z,11.88
2022-09-16T00:18:22.087Z,11.73
2022-09-16T00:20:51.618Z,12.50
2022-09-16T00:23:19.981Z,11.88
2022-09-16T00:25:53.991Z,12.43
2022-09-16T00:28:22.285Z,12.48
2022-09-16T00:30:49.952Z,11.57
2022-09-16T00:33:18.273Z,12.40
2022-09-16T00:35:45.482Z,11.90
2022-09-16T00:38:12.654Z,11.93
2022-09-16T00:40:47.634Z,12.18
2022-09-16T00:43:16.811Z,11.60
2022-09-16T00:45:55.704Z,13.13
2022-09-16T00:48:25.665Z,12.93
2022-09-16T00:50:57.337Z,12.55
2022-09-16T01:01:38.447Z,12.20
2022-09-16T01:04:22.590Z,12.57
2022-09-16T01:06:49.995Z,13.18
2022-09-16T01:09:19.597Z,13.18
2022-09-16T01:14:33.132Z,12.95
2022-09-16T01:17:15.414Z,12.30
2022-09-16T01:20:19.545Z,12.10
2022-09-16T01:23:06.813Z,11.77
2022-09-16T01:25:42.757Z,12.25
2022-09-16T01:28:09.705Z,12.40
2022-09-16T01:30:55.075Z,13.10
2022-09-16T01:33:37.374Z,12.57
2022-09-16T01:36:20.586Z,12.63
2022-09-16T01:39:12.241Z,13.75
2022-09-16T01:42:07.208Z,13.60
2022-09-16T01:44:58.053Z,12.63
2022-09-16T01:47:36.406Z,14.10
2022-09-16T01:50:37.356Z,13.55
2022-09-16T01:53:12.964Z,13.02
2022-09-16T01:55:51.074Z,12.93
2022-09-16T01:58:22.873Z,12.40
2022-09-16T02:00:53.986Z,13.40
2022-09-16T02:03:42.765Z,13.77
2022-09-16T02:06:13.917Z,12.00
2022-09-16T02:08:58.135Z,14.10
2022-09-16T02:11:25.649Z,13.77
2022-09-16T02:14:05.171Z,13.90
2022-09-16T02:16:36.296Z,14.20
2022-09-16T02:19:10.970Z,14.15
2022-09-16T02:21:45.465Z,14.50
2022-09-16T02:24:17.729Z,14.07
2022-09-16T02:26:51.627Z,14.85
2022-09-16T02:29:23.396Z,15.23
2022-09-16T02:31:55.752Z,16.75
2022-09-16T02:34:38.581Z,16.23
2022-09-16T02:37:11.987Z,15.52
2022-09-16T02:39:44.576Z,16.42
2022-09-16T02:42:11.850Z,15.75
2022-09-16T02:44:38.881Z,15.25
2022-09-16T02:47:26.726Z,16.02
2022-09-16T02:50:12.343Z,14.85
2022-09-16T02:53:01.810Z,15.88
2022-09-16T02:55:47.562Z,16.63
2022-09-16T02:58:14.518Z,15.38
2022-09-16T03:00:48.241Z,14.52
2022-09-16T03:03:15.634Z,15.48
2022-09-16T03:06:04.105Z,15.80
2022-09-16T03:08:30.933Z,15.90
2022-09-16T03:11:16.459Z,15.60
2022-09-16T03:14:02.072Z,16.65
2022-09-16T03:16:47.691Z,16.30
2022-09-16T03:19:25.411Z,15.63
2022-09-16T03:22:03.622Z,15.23
2022-09-16T03:24:53.528Z,15.68
2022-09-16T03:27:30.191Z,15.52
2022-09-16T03:30:06.185Z,15.95
2022-09-16T03:32:56.553Z,16.95
2022-09-16T03:35:50.494Z,18.00
2022-09-16T03:38:19.921Z,17.45
2022-09-16T03:40:48.456Z,18.35
2022-09-16T03:43:17.276Z,16.85
2022-09-16T03:48:13.304Z,17.80
2022-09-16T03:50:40.365Z,16.77
2022-09-16T03:53:08.317Z,16.98
2022-09-16T03:55:35.079Z,16.55
2022-09-16T03:58:01.903Z,16.50
2022-09-16T04:00:29.284Z,16.77
2022-09-16T04:02:56.686Z,15.10
2022-09-16T04:05:23.615Z,14.88
2022-09-16T04:07:50.810Z,14.88
2022-09-16T04:10:18.091Z,14.68
2022-09-16T04:12:45.080Z,15.90
2022-09-16T04:15:12.663Z,15.90
2022-09-16T04:17:39.543Z,15.40
2022-09-16T04:20:08.189Z,15.77
2022-09-16T04:22:35.270Z,14.43
2022-09-16T04:25:02.188Z,15.13
2022-09-16T04:27:28.992Z,13.75
2022-09-16T04:29:56.426Z,14.57
2022-09-16T04:32:23.493Z,13.90
2022-09-16T04:34:50.260Z,14.05
2022-09-16T04:37:17.278Z,14.05
2022-09-16T04:39:44.053Z,14.93
2022-09-16T04:42:12.451Z,13.70
2022-09-16T04:44:39.890Z,14.88
2022-09-16T04:47:06.858Z,14.60
2022-09-16T04:49:33.629Z,13.80
2022-09-16T04:52:00.650Z,15.32
2022-09-16T04:54:27.964Z,16.10
2022-09-16T04:56:54.793Z,15.45
2022-09-16T04:59:21.976Z,15.15
2022-09-16T05:01:48.865Z,14.95
2022-09-16T05:04:15.769Z,16.15
2022-09-16T05:06:42.818Z,14.57
2022-09-16T05:09:11.463Z,14.40
2022-09-16T05:11:40.124Z,14.60
2022-09-16T05:14:10.410Z,13.70
2022-09-16T05:16:37.206Z,13.80
2022-09-16T05:19:05.095Z,14.27
2022-09-16T05:21:35.982Z,14.35
2022-09-16T05:24:05.283Z,14.50
2022-09-16T05:29:05.015Z,13.30
2022-09-16T05:31:35.774Z,13.43
2022-09-16T05:34:11.682Z,13.43
2022-09-16T05:36:39.238Z,12.90
2022-09-16T05:39:24.083Z,13.38
2022-09-16T05:41:57.124Z,12.18
2022-09-16T05:44:25.215Z,15.30
2022-09-16T05:46:52.532Z,13.63
2022-09-16T05:49:20.974Z,10.80
2022-09-16T05:51:49.473Z,8.18
2022-09-16T05:54:18.729Z,7.40
2022-09-16T05:56:46.358Z,6.63
2022-09-16T05:59:14.563Z,6.10
2022-09-16T06:01:41.821Z,6.28
2022-09-16T06:04:11.668Z,6.53
2022-09-16T06:06:41.437Z,5.70
2022-09-16T06:09:14.244Z,6.20
2022-09-16T06:11:47.453Z,5.00
2022-09-16T06:14:15.850Z,5.35
2022-09-16T06:16:43.559Z,5.30
2022-09-16T06:19:13.714Z,5.22
2022-09-16T06:21:41.933Z,5.45
2022-09-16T06:24:10.142Z,5.63
2022-09-16T06:26:42.307Z,5.50
2022-09-16T06:29:10.210Z,5.03
2022-09-16T06:31:38.666Z,4.60
2022-09-16T06:34:06.562Z,4.50
2022-09-16T06:36:38.559Z,4.22
2022-09-16T06:39:07.544Z,4.40
2022-09-16T06:41:34.694Z,4.45
2022-09-16T06:44:01.747Z,4.93
2022-09-16T06:46:29.765Z,5.13
2022-09-16T06:49:00.407Z,3.90
2022-09-16T06:51:31.748Z,4.80
2022-09-16T06:54:07.495Z,5.82
2022-09-16T06:56:37.743Z,4.90
2022-09-16T06:59:05.391Z,4.75
2022-09-16T07:01:33.414Z,4.97
2022-09-16T07:04:05.513Z,4.07
2022-09-16T07:06:58.212Z,4.07
2022-09-16T07:09:20.323Z,4.07
2022-09-16T07:11:47.106Z,4.00
2022-09-16T07:14:13.873Z,4.55
2022-09-16T07:16:40.884Z,4.05
2022-09-16T07:19:07.737Z,4.00
2022-09-16T07:21:34.709Z,5.22
2022-09-16T07:24:02.714Z,3.72
2022-09-16T07:26:35.388Z,3.40
2022-09-16T07:29:05.617Z,3.25
2022-09-16T07:31:37.029Z,3.38
2022-09-16T07:34:06.718Z,3.30
2022-09-16T07:36:45.750Z,3.10
2022-09-16T07:41:43.346Z,3.38
2022-09-16T07:44:12.891Z,2.95
2022-09-16T07:46:39.912Z,3.05
2022-09-16T07:49:09.163Z,3.40
2022-09-16T07:51:36.336Z,2.60
2022-09-16T07:54:07.208Z,2.90
2022-09-16T07:56:36.837Z,3.05
2022-09-16T07:59:06.752Z,3.20
2022-09-16T08:01:35.305Z,2.92
2022-09-16T08:04:04.526Z,3.00
2022-09-16T08:06:32.532Z,2.43
2022-09-16T08:09:10.524Z,2.83
2022-09-16T08:11:48.109Z,2.20
2022-09-16T08:14:15.097Z,2.80
2022-09-16T08:16:41.954Z,2.63
2022-09-16T08:19:09.552Z,2.45
2022-09-16T08:21:36.587Z,2.30
2022-09-16T08:24:03.436Z,2.80
2022-09-16T08:26:31.023Z,1.88
2022-09-16T08:29:08.424Z,2.55
2022-09-16T08:31:36.990Z,2.20
2022-09-16T08:34:04.523Z,1.98
2022-09-16T08:36:33.333Z,2.38
2022-09-16T08:39:00.577Z,2.13
2022-09-16T08:41:52.637Z,1.88
2022-09-16T08:44:40.798Z,3.20
2022-09-16T08:47:42.688Z,2.50
2022-09-16T08:50:23.547Z,2.08
2022-09-16T08:52:53.394Z,2.70
2022-09-16T08:55:32.167Z,1.88
2022-09-16T08:58:14.784Z,1.90
2022-09-16T09:00:44.357Z,2.13
2022-09-16T09:03:29.989Z,1.60
2022-09-16T09:05:59.088Z,1.27
2022-09-16T09:08:41.302Z,1.70
2022-09-16T09:11:26.480Z,1.55
2022-09-16T09:14:00.832Z,1.33
2022-09-16T09:16:59.552Z,1.58
2022-09-16T09:22:37.467Z,1.30
2022-09-16T09:25:31.376Z,1.45
2022-09-16T09:28:24.607Z,1.55
2022-09-16T09:31:11.180Z,1.30
2022-09-16T09:33:46.544Z,1.10
2022-09-16T09:36:26.222Z,1.50
2022-09-16T09:41:45.840Z,1.33
2022-09-16T09:44:40.466Z,1.40
2022-09-16T09:47:48.398Z,1.13
2022-09-16T09:50:30.357Z,1.17
2022-09-16T09:53:05.893Z,1.33
2022-09-16T09:55:34.596Z,1.45
2022-09-16T10:00:32.853Z,1.40
2022-09-16T10:03:17.244Z,1.58
2022-09-16T10:05:46.061Z,1.30
2022-09-16T10:08:27.142Z,1.55
2022-09-16T10:11:02.381Z,1.48
2022-09-16T10:13:30.716Z,1.50
2022-09-16T10:16:21.411Z,1.20
2022-09-16T10:19:37.439Z,1.02
2022-09-16T10:22:10.311Z,1.85
2022-09-16T10:24:40.530Z,4.38
2022-09-16T10:27:34.180Z,1.52
2022-09-16T10:30:16.686Z,1.75
2022-09-16T10:32:55.615Z,1.60
2022-09-16T10:35:27.061Z,1.42
2022-09-16T10:37:57.684Z,1.40
2022-09-16T10:40:26.060Z,1.38
2022-09-16T10:42:54.669Z,1.50
2022-09-16T10:45:29.209Z,2.20
2022-09-16T10:48:04.818Z,1.30
2022-09-16T10:50:34.348Z,1.70
2022-09-16T10:53:01.152Z,2.30
2022-09-16T10:55:30.639Z,1.88
2022-09-16T10:58:27.119Z,2.58
2022-09-16T11:01:18.359Z,2.22
2022-09-16T11:04:09.457Z,1.80
2022-09-16T11:06:45.247Z,1.90
2022-09-16T11:09:24.310Z,2.58
2022-09-16T11:12:11.025Z,3.78
2022-09-16T11:14:57.038Z,2.55
2022-09-16T11:17:48.750Z,1.95
2022-09-16T11:20:28.179Z,1.77
2022-09-16T11:25:43.111Z,3.30
2022-09-16T11:28:32.044Z,2.83
2022-09-16T11:34:22.290Z,2.10
2022-09-16T11:37:10.684Z,1.88
2022-09-16T11:40:02.464Z,2.50
2022-09-16T11:42:55.974Z,1.45
2022-09-16T11:45:41.821Z,1.80
2022-09-16T11:48:08.759Z,2.47
2022-09-16T11:50:54.202Z,2.25
2022-09-16T11:53:23.641Z,1.70
2022-09-16T11:55:58.584Z,1.83
2022-09-16T11:58:46.326Z,1.50
2022-09-16T12:01:26.224Z,1.45
2022-09-16T12:04:25.856Z,1.60
2022-09-16T12:07:06.466Z,1.73
2022-09-16T12:09:55.799Z,1.58
2022-09-16T12:12:28.900Z,1.67
2022-09-16T12:15:19.197Z,1.70
2022-09-16T12:18:13.166Z,1.80
2022-09-16T12:20:49.290Z,1.95
2022-09-16T12:23:20.525Z,2.17
2022-09-16T12:26:18.466Z,2.05
2022-09-16T12:28:59.491Z,1.77
2022-09-16T12:31:34.380Z,1.88
2022-09-16T12:34:10.229Z,1.70
2022-09-16T12:36:43.244Z,1.67
2022-09-16T12:39:12.665Z,1.80
2022-09-16T12:42:04.014Z,1.80
2022-09-16T12:44:57.189Z,1.85
2022-09-16T12:47:39.046Z,4.60
2022-09-16T12:50:37.560Z,1.83
2022-09-16T12:53:10.538Z,2.45
2022-09-16T12:56:02.856Z,3.28
2022-09-16T12:58:39.335Z,2.38
2022-09-16T13:01:14.442Z,2.30
2022-09-16T13:03:47.261Z,2.50
2022-09-16T13:06:25.675Z,2.38
2022-09-16T13:08:53.893Z,2.05
2022-09-16T13:12:23.642Z,1.70
2022-09-16T13:14:23.543Z,1.98
2022-09-16T13:16:58.533Z,2.15
2022-09-16T13:19:34.169Z,2.00
2022-09-16T13:22:13.116Z,1.60
2022-09-16T13:27:30.805Z,1.92
2022-09-16T13:30:12.797Z,1.70
2022-09-16T13:32:45.958Z,2.10
2022-09-16T13:35:23.500Z,1.85
2022-09-16T13:37:54.524Z,1.70
2022-09-16T13:40:24.125Z,1.80
2022-09-16T13:42:51.507Z,1.65
2022-09-16T13:45:33.442Z,2.13
2022-09-16T13:48:10.820Z,1.88
2022-09-16T13:50:40.059Z,2.28
2022-09-16T13:53:18.739Z,2.08
2022-09-16T13:55:48.618Z,2.13
2022-09-16T13:58:35.546Z,2.08
2022-09-16T14:01:05.919Z,2.03
2022-09-16T14:04:01.964Z,3.10
2022-09-16T14:06:39.032Z,2.83
2022-09-16T14:09:14.034Z,2.92
2022-09-16T14:11:54.839Z,3.40
2022-09-16T14:17:18.227Z,2.83
2022-09-16T14:19:46.935Z,3.30
2022-09-16T14:22:17.080Z,2.80
2022-09-16T14:24:46.047Z,2.65
2022-09-16T14:27:27.040Z,2.42
2022-09-16T14:30:03.858Z,3.05
2022-09-16T14:32:33.216Z,2.92
2022-09-16T14:37:31.927Z,2.47
2022-09-16T14:40:07.127Z,2.65
2022-09-16T14:42:34.047Z,2.58
2022-09-16T14:45:01.073Z,2.83
2022-09-16T14:47:50.743Z,2.35
2022-09-16T14:50:26.606Z,2.70
2022-09-16T14:52:58.681Z,2.30
2022-09-16T14:55:30.125Z,3.08
2022-09-16T14:57:59.830Z,2.63
2022-09-16T15:00:33.262Z,2.30
2022-09-16T15:03:14.468Z,2.70
2022-09-16T15:05:45.842Z,2.70
2022-09-16T15:08:36.436Z,9.15
2022-09-16T15:11:24.228Z,7.65
2022-09-16T15:13:59.901Z,4.95
2022-09-16T15:16:27.889Z,4.38
2022-09-16T15:18:58.940Z,11.32
2022-09-16T15:21:38.797Z,7.57
2022-09-16T15:24:28.341Z,17.00
2022-09-16T15:26:56.246Z,11.98
2022-09-16T15:29:23.156Z,9.35
2022-09-16T15:31:50.880Z,7.78
2022-09-16T15:34:26.678Z,6.10
2022-09-16T15:37:00.123Z,4.97
2022-09-16T15:39:33.772Z,4.30
2022-09-16T15:42:24.084Z,4.82
2022-09-16T15:44:58.709Z,9.82
2022-09-16T15:47:29.367Z,18.52
2022-09-16T15:50:03.174Z,15.25
2022-09-16T15:52:34.266Z,7.88
2022-09-16T15:55:05.100Z,6.15
2022-09-16T15:57:42.791Z,6.18
2022-09-16T16:00:15.835Z,6.45
2022-09-16T16:02:53.484Z,11.23
2022-09-16T16:05:23.800Z,15.93
2022-09-16T16:07:56.687Z,10.75
2022-09-16T16:10:25.202Z,9.07
2022-09-16T16:12:54.582Z,6.90
2022-09-16T16:15:34.356Z,11.05
2022-09-16T16:18:06.889Z,10.07
2022-09-16T16:20:36.162Z,9.95
2022-09-16T16:23:03.400Z,8.55
2022-09-16T16:25:30.170Z,8.23
2022-09-16T16:27:56.954Z,7.72
2022-09-16T16:30:24.176Z,8.60
2022-09-16T16:32:51.040Z,7.65
2022-09-16T16:35:17.877Z,9.23
2022-09-16T16:37:46.830Z,7.00
2022-09-16T16:40:14.981Z,6.45
2022-09-16T16:42:43.732Z,5.63
2022-09-16T16:45:14.162Z,5.40
2022-09-16T16:47:41.819Z,5.70
2022-09-16T16:50:09.466Z,5.75
2022-09-16T16:52:36.830Z,5.78
2022-09-16T16:55:04.441Z,5.93
2022-09-16T16:57:31.635Z,5.63
2022-09-16T16:59:58.815Z,6.13
2022-09-16T17:02:26.245Z,4.82
2022-09-16T17:04:53.193Z,5.30
2022-09-16T17:07:28.219Z,5.10
2022-09-16T17:09:57.533Z,5.88
2022-09-16T17:12:25.275Z,5.13
2022-09-16T17:14:52.057Z,5.93
2022-09-16T17:17:18.810Z,6.15
2022-09-16T17:19:45.774Z,6.55
2022-09-16T17:22:12.543Z,6.07
2022-09-16T17:24:39.546Z,5.03
2022-09-16T17:27:06.761Z,4.35
2022-09-16T17:29:33.603Z,4.28
2022-09-16T17:32:02.793Z,4.75
2022-09-16T17:34:30.287Z,4.75
2022-09-16T17:36:58.470Z,4.15
2022-09-16T17:39:26.078Z,4.07
2022-09-16T17:41:54.728Z,4.82
2022-09-16T17:44:21.582Z,4.67
2022-09-16T17:46:48.414Z,4.32
2022-09-16T17:49:18.431Z,4.60
2022-09-16T17:51:45.711Z,4.15
2022-09-16T17:54:13.000Z,4.43
2022-09-16T17:56:42.697Z,4.32
2022-09-16T17:59:11.573Z,4.43
2022-09-16T18:01:39.492Z,3.77
2022-09-16T18:04:07.598Z,4.55
2022-09-16T18:06:43.122Z,9.20
2022-09-16T18:09:11.264Z,10.70
2022-09-16T18:11:39.475Z,10.80
2022-09-16T18:14:08.175Z,14.77
2022-09-16T18:16:35.283Z,19.38
2022-09-16T18:19:03.066Z,17.88
2022-09-16T18:21:31.707Z,15.60
2022-09-16T18:24:00.768Z,17.40
2022-09-16T18:26:28.194Z,16.52
2022-09-16T18:29:12.577Z,13.85
2022-09-16T18:31:46.163Z,14.18
2022-09-16T18:34:14.478Z,11.55
2022-09-16T18:36:41.965Z,11.25
2022-09-16T18:39:14.708Z,11.30
2022-09-16T18:41:43.249Z,16.50
2022-09-16T18:44:23.704Z,16.50
2022-09-16T18:46:51.390Z,19.23
2022-09-16T18:49:21.449Z,16.80
2022-09-16T18:51:52.007Z,17.92
2022-09-16T18:54:30.537Z,19.58
2022-09-16T18:57:00.210Z,16.90
2022-09-16T18:59:32.587Z,17.77
2022-09-16T19:02:02.966Z,15.85
2022-09-16T19:04:32.773Z,14.98
2022-09-16T19:07:07.368Z,16.00
2022-09-16T19:09:36.723Z,13.85
2022-09-16T19:12:04.009Z,14.15
2022-09-16T19:14:30.766Z,14.77
2022-09-16T19:16:57.795Z,13.45
2022-09-16T19:19:24.579Z,13.05
2022-09-16T19:21:51.530Z,12.85
2022-09-16T19:24:21.634Z,14.57
2022-09-16T19:26:49.989Z,14.25
2022-09-16T19:29:17.914Z,13.77
2022-09-16T19:31:47.517Z,12.18
2022-09-16T19:34:16.042Z,11.43
2022-09-16T19:36:43.592Z,11.70
2022-09-16T19:39:12.199Z,10.98
2022-09-16T19:41:40.284Z,10.07
2022-09-16T19:44:11.243Z,10.90
2022-09-16T19:46:40.268Z,10.63
2022-09-16T19:49:08.438Z,11.05
2022-09-16T19:51:35.917Z,11.32
2022-09-16T19:54:03.392Z,10.88
2022-09-16T19:56:32.945Z,10.10
2022-09-16T19:59:01.596Z,10.13
2022-09-16T20:01:34.428Z,10.52
2022-09-16T20:04:03.187Z,11.13
2022-09-16T20:06:34.997Z,12.55
2022-09-16T20:09:03.961Z,11.60
2022-09-16T20:11:33.924Z,12.98
2022-09-16T20:14:03.609Z,12.77
2022-09-16T20:16:37.692Z,13.20
2022-09-16T20:19:07.373Z,12.63
2022-09-16T20:24:08.022Z,10.77
2022-09-16T20:26:36.184Z,12.20
2022-09-16T20:29:03.879Z,10.45
2022-09-16T20:31:34.075Z,9.80
2022-09-16T20:34:01.867Z,8.70
2022-09-16T20:36:31.038Z,8.10
2022-09-16T20:39:01.015Z,8.23
2022-09-16T20:41:30.585Z,8.10
2022-09-16T20:46:27.273Z,9.43
2022-09-16T20:48:56.027Z,7.70
2022-09-16T20:51:26.183Z,8.52
2022-09-16T20:53:55.458Z,9.52
2022-09-16T20:56:22.970Z,8.38
2022-09-16T20:58:50.365Z,9.10
2022-09-16T21:01:18.872Z,9.73
2022-09-16T21:03:46.042Z,9.20
2022-09-16T21:06:14.826Z,9.30
2022-09-16T21:08:42.764Z,8.27
2022-09-16T21:11:14.087Z,8.57
2022-09-16T21:13:42.626Z,9.60
2022-09-16T21:16:11.663Z,9.10
2022-09-16T21:21:14.380Z,8.35
2022-09-16T21:23:44.239Z,7.70
2022-09-16T21:26:15.022Z,8.27
2022-09-16T21:28:43.522Z,7.50
2022-09-16T21:31:15.198Z,7.83
2022-09-16T21:33:44.825Z,9.15
2022-09-16T21:36:13.750Z,7.80
2022-09-16T21:38:41.526Z,8.80
2022-09-16T21:41:12.374Z,7.95
2022-09-16T21:43:42.342Z,7.85
2022-09-16T21:46:13.739Z,7.78
2022-09-16T21:48:42.574Z,7.72
2022-09-16T21:51:12.416Z,8.95
2022-09-16T21:53:43.575Z,7.57
2022-09-16T21:56:21.934Z,8.35
2022-09-16T21:58:53.008Z,8.45
2022-09-16T22:01:22.638Z,6.70
2022-09-16T22:04:04.258Z,7.20
2022-09-16T22:06:32.004Z,6.55
2022-09-16T22:09:01.560Z,6.50
2022-09-16T22:11:31.186Z,6.50
2022-09-16T22:14:02.540Z,6.53
2022-09-16T22:16:37.208Z,6.78
2022-09-16T22:19:14.357Z,5.90
2022-09-16T22:21:43.306Z,6.35
2022-09-16T22:24:11.047Z,6.47
2022-09-16T22:26:38.024Z,6.68
2022-09-16T22:29:06.301Z,6.28
2022-09-16T22:31:35.948Z,6.70
2022-09-16T22:34:03.552Z,6.65
2022-09-16T22:36:32.315Z,7.47
2022-09-16T22:39:26.586Z,6.60
2022-09-16T22:41:53.623Z,6.85
2022-09-16T22:44:20.620Z,7.07
2022-09-16T22:46:48.259Z,7.18
2022-09-16T22:49:15.835Z,6.00
2022-09-16T22:51:43.332Z,5.85
2022-09-16T22:54:11.867Z,5.80
2022-09-16T22:56:38.746Z,6.68
2022-09-16T22:59:07.124Z,6.97
2022-09-16T23:01:37.696Z,6.50
2022-09-16T23:04:06.255Z,6.32
2022-09-16T23:06:34.812Z,6.47
2022-09-16T23:09:02.100Z,6.95
2022-09-16T23:11:32.641Z,7.32
2022-09-16T23:14:01.527Z,7.32
2022-09-16T23:16:31.385Z,6.15
2022-09-16T23:19:00.532Z,6.80
2022-09-16T23:21:28.203Z,7.43
2022-09-16T23:23:57.314Z,8.05
2022-09-16T23:26:27.225Z,7.20
2022-09-16T23:28:56.377Z,7.00
2022-09-16T23:31:25.991Z,7.07
2022-09-16T23:33:53.586Z,8.07
2022-09-16T23:36:21.421Z,7.07
2022-09-16T23:38:48.181Z,6.82
2022-09-16T23:41:21.482Z,7.70
2022-09-16T23:43:50.174Z,7.07
2022-09-16T23:46:19.855Z,7.50
2022-09-16T23:48:47.771Z,6.70
2022-09-16T23:51:14.760Z,6.85
2022-09-16T23:53:44.622Z,6.45
2022-09-16T23:56:14.429Z,7.50
2022-09-16T23:58:42.596Z,7.72
